Time;durP1;ratioP1;P1;durP2;ratioP2;P2;SDS_P1;SDS_P2;PMS_P1;PMS_P2;Temp;Humidity;BMP_temperature;BMP_pressure;BME280_temperature;BME280_humidity;BME280_pressure;Samples;Min_cycle;Max_cycle;Signal;HPM_P1;HPM_P2
2022/10/04 00:01:29;;;;;;;24.97;22.33;;;;;;;7.81;100.00;97491.59;4994653;28;20190;-74
2022/10/04 00:04:31;;;;;;;23.20;21.13;;;;;;;7.85;100.00;97487.63;5005512;28;20207;-75
2022/10/04 00:07:04;;;;;;;22.50;19.17;;;;;;;7.67;100.00;97489.13;4964113;28;20686;-74
2022/10/04 00:09:35;;;;;;;20.93;18.73;;;;;;;7.77;100.00;97484.34;4994763;28;20540;-74
2022/10/04 00:12:03;;;;;;;25.27;22.93;;;;;;;7.77;100.00;97482.56;4994961;28;20184;-74
2022/10/04 00:14:34;;;;;;;24.07;21.67;;;;;;;7.64;100.00;97471.22;4994715;28;20188;-74
2022/10/04 00:17:09;;;;;;;22.80;20.57;;;;;;;7.74;100.00;97475.13;5006765;28;20184;-74
2022/10/04 00:19:47;;;;;;;23.03;20.63;;;;;;;7.64;100.00;97482.47;4994338;28;20648;-75
2022/10/04 00:22:18;;;;;;;22.00;20.07;;;;;;;7.70;100.00;97480.88;4995486;28;20179;-74
2022/10/04 00:25:12;;;;;;;21.40;19.13;;;;;;;7.68;100.00;97478.50;5010019;28;20183;-75
2022/10/04 00:27:58;;;;;;;18.67;16.67;;;;;;;7.70;100.00;97479.09;5013863;28;20205;-74
2022/10/04 00:30:23;;;;;;;20.30;18.30;;;;;;;7.65;100.00;97476.25;5000907;28;20175;-75
2022/10/04 00:33:02;;;;;;;20.67;18.50;;;;;;;7.47;100.00;97471.50;5010268;28;20197;-74
2022/10/04 00:35:27;;;;;;;21.80;18.07;;;;;;;7.58;100.00;97472.00;5003124;28;20241;-74
2022/10/04 00:38:07;;;;;;;22.73;20.30;;;;;;;7.40;100.00;97480.28;4994197;28;20218;-74
2022/10/04 00:40:45;;;;;;;20.07;17.97;;;;;;;7.27;100.00;97472.34;4993748;28;20266;-74
2022/10/04 00:43:28;;;;;;;21.27;19.00;;;;;;;7.21;100.00;97471.31;5010429;28;20175;-74
2022/10/04 00:46:00;;;;;;;20.83;18.63;;;;;;;7.26;100.00;97465.53;4993405;28;20199;-74
2022/10/04 00:48:35;;;;;;;20.80;18.57;;;;;;;7.19;100.00;97462.88;4993773;28;20195;-74
2022/10/04 00:51:24;;;;;;;21.07;17.87;;;;;;;7.34;100.00;97455.78;4995253;28;20187;-74
2022/10/04 00:53:49;;;;;;;21.63;17.37;;;;;;;7.42;100.00;97455.63;5004756;28;20668;-74
2022/10/04 00:56:39;;;;;;;20.00;17.73;;;;;;;7.37;100.00;97457.19;5013379;28;20187;-74
2022/10/04 00:59:23;;;;;;;21.83;17.67;;;;;;;7.45;100.00;97455.25;5009616;28;20340;-73
2022/10/04 01:01:55;;;;;;;18.00;16.10;;;;;;;7.43;100.00;97461.66;4999027;28;20628;-74
2022/10/04 01:04:50;;;;;;;19.67;17.67;;;;;;;7.40;100.00;97449.81;4991921;28;20646;-74
2022/10/04 01:07:22;;;;;;;20.63;17.43;;;;;;;7.41;100.00;97454.00;4979481;28;20215;-74
2022/10/04 01:09:54;;;;;;;18.97;15.97;;;;;;;7.24;100.00;97452.72;4993476;28;20687;-73
2022/10/04 01:12:39;;;;;;;22.53;18.07;;;;;;;7.25;100.00;97450.88;4994584;28;20211;-73
2022/10/04 01:15:13;;;;;;;19.87;17.47;;;;;;;7.07;100.00;97451.34;4993496;28;20231;-74
2022/10/04 01:17:39;;;;;;;20.80;17.73;;;;;;;6.95;100.00;97448.44;5003511;28;20191;-73
2022/10/04 01:20:28;;;;;;;20.47;18.37;;;;;;;6.96;100.00;97447.47;4999866;28;20657;-73
2022/10/04 01:22:54;;;;;;;28.70;20.73;;;;;;;6.91;100.00;97444.59;5003717;28;20167;-73
2022/10/04 01:25:46;;;;;;;28.97;24.77;;;;;;;7.07;100.00;97446.16;4993489;28;20666;-73
2022/10/04 01:28:12;;;;;;;34.80;28.20;;;;;;;7.02;100.00;97444.06;4993654;28;20203;-74
2022/10/04 01:30:38;;;;;;;34.70;27.53;;;;;;;7.15;100.00;97450.41;4993582;28;20192;-74
2022/10/04 01:33:05;;;;;;;30.07;26.47;;;;;;;7.14;100.00;97446.19;5003870;28;20250;-74
2022/10/04 01:35:32;;;;;;;28.00;23.63;;;;;;;7.02;100.00;97443.31;5001457;28;20188;-75
2022/10/04 01:37:58;;;;;;;27.30;23.20;;;;;;;7.01;100.00;97437.28;5009245;28;20250;-74
2022/10/04 01:40:23;;;;;;;31.53;24.77;;;;;;;7.07;100.00;97435.72;5011351;28;20191;-74
2022/10/04 01:43:00;;;;;;;32.80;23.37;;;;;;;7.16;100.00;97426.75;5012985;28;20175;-74
2022/10/04 01:45:36;;;;;;;29.50;23.10;;;;;;;7.12;100.00;97428.13;5012323;28;20238;-74
2022/10/04 01:48:09;;;;;;;26.00;18.73;;;;;;;7.09;100.00;97425.88;4996933;28;20210;-75
2022/10/04 01:50:47;;;;;;;21.37;16.80;;;;;;;7.04;100.00;97420.44;4979270;28;20191;-74
2022/10/04 01:53:26;;;;;;;20.97;16.20;;;;;;;7.03;100.00;97411.81;5016672;28;20167;-75
2022/10/04 01:56:02;;;;;;;18.57;16.40;;;;;;;6.87;100.00;97401.66;5016432;28;20180;-75
2022/10/04 01:58:38;;;;;;;18.83;16.87;;;;;;;6.81;100.00;97405.00;5014506;28;20187;-75
2022/10/04 02:01:10;;;;;;;17.93;16.07;;;;;;;6.86;100.00;97397.44;5014506;28;20655;-75
2022/10/04 02:03:44;;;;;;;21.63;18.57;;;;;;;6.70;100.00;97395.09;5015847;28;20194;-75
2022/10/04 02:06:12;;;;;;;20.70;18.53;;;;;;;6.66;100.00;97402.50;5000897;28;20582;-74
2022/10/04 02:08:44;;;;;;;25.97;19.63;;;;;;;6.75;100.00;97403.16;4979800;28;20612;-75
2022/10/04 02:11:18;;;;;;;25.87;20.87;;;;;;;6.73;100.00;97402.56;5001002;28;20179;-75
2022/10/04 02:13:45;;;;;;;33.00;23.87;;;;;;;6.80;100.00;97398.19;5016010;28;20180;-74
2022/10/04 02:16:11;;;;;;;26.37;23.50;;;;;;;6.72;100.00;97392.31;5015746;28;20195;-74
2022/10/04 02:18:38;;;;;;;23.53;17.70;;;;;;;6.71;100.00;97398.50;5000086;28;20196;-74
2022/10/04 02:21:06;;;;;;;17.73;15.87;;;;;;;6.81;100.00;97397.19;4984579;28;20211;-74
2022/10/04 02:23:34;;;;;;;18.70;14.73;;;;;;;6.85;100.00;97401.06;5015765;28;20214;-75
2022/10/04 02:26:04;;;;;;;16.30;14.70;;;;;;;6.93;100.00;97398.31;5004865;28;20231;-75
2022/10/04 02:28:31;;;;;;;18.60;15.87;;;;;;;6.79;100.00;97395.78;4996737;28;20525;-74
2022/10/04 02:33:47;;;;;;;16.13;14.63;;;;;;;6.46;100.00;97390.28;4996280;28;20222;-75
2022/10/04 02:36:13;;;;;;;16.77;15.07;;;;;;;6.54;100.00;97387.53;5007050;28;20188;-75
2022/10/04 02:38:49;;;;;;;17.07;15.17;;;;;;;6.54;100.00;97384.94;5015692;28;20183;-75
2022/10/04 02:41:26;;;;;;;19.27;15.20;;;;;;;6.64;100.00;97388.03;5011236;28;20180;-75
2022/10/04 02:44:07;;;;;;;18.03;14.73;;;;;;;6.53;100.00;97385.91;4995684;28;20220;-75
2022/10/04 02:46:50;;;;;;;15.93;14.43;;;;;;;6.59;100.00;97380.78;4996510;28;20214;-75
2022/10/04 02:49:40;;;;;;;18.17;16.47;;;;;;;6.69;100.00;97376.06;5015332;28;20183;-75
2022/10/04 02:52:21;;;;;;;17.07;15.23;;;;;;;6.56;100.00;97382.97;5013354;28;20647;-75
2022/10/04 02:55:31;;;;;;;19.80;15.47;;;;;;;6.65;100.00;97389.66;5000067;28;20191;-75
2022/10/04 02:57:58;;;;;;;18.13;16.23;;;;;;;6.68;100.00;97381.47;4897047;29;20678;-75
2022/10/04 03:00:29;;;;;;;17.87;16.27;;;;;;;6.75;100.00;97384.09;4897423;29;20218;-75
2022/10/04 03:03:20;;;;;;;18.30;16.30;;;;;;;6.67;100.00;97379.84;4882585;29;20202;-75
2022/10/04 03:05:55;;;;;;;17.33;15.60;;;;;;;6.65;100.00;97374.00;4897280;29;20187;-75
2022/10/04 03:08:20;;;;;;;17.27;15.13;;;;;;;6.67;100.00;97374.66;4897410;29;20266;-75
2022/10/04 03:10:46;;;;;;;19.67;16.80;;;;;;;6.69;100.00;97373.44;4897637;29;20676;-75
2022/10/04 03:13:14;;;;;;;17.40;15.57;;;;;;;6.51;100.00;97372.28;4897477;29;20242;-75
2022/10/04 03:15:41;;;;;;;18.60;15.37;;;;;;;6.54;100.00;97366.72;4897103;29;20215;-75
2022/10/04 03:18:07;;;;;;;17.47;15.53;;;;;;;6.56;100.00;97369.94;4897243;29;20612;-75
2022/10/04 03:20:39;;;;;;;16.23;14.47;;;;;;;6.42;100.00;97370.78;4897453;29;20628;-75
2022/10/04 03:23:05;;;;;;;18.70;15.40;;;;;;;6.42;100.00;97368.19;4897235;29;20192;-74
2022/10/04 03:25:43;;;;;;;16.83;14.30;;;;;;;6.36;100.00;97363.72;4897169;29;20196;-76
2022/10/04 03:28:08;;;;;;;18.20;13.67;;;;;;;6.37;100.00;97360.94;4928169;28;20228;-75
2022/10/04 03:30:35;;;;;;;18.47;14.00;;;;;;;6.40;100.00;97357.97;4997328;28;20230;-75
2022/10/04 03:33:01;;;;;;;18.70;14.47;;;;;;;6.35;100.00;97360.34;4995306;28;20218;-75
2022/10/04 03:35:34;;;;;;;16.73;14.93;;;;;;;6.42;100.00;97353.38;4981314;28;20239;-75
2022/10/04 03:38:02;;;;;;;16.53;14.73;;;;;;;6.49;100.00;97358.66;4991957;28;20196;-74
2022/10/04 03:40:31;;;;;;;15.93;14.33;;;;;;;6.46;100.00;97356.44;4994772;28;20267;-75
2022/10/04 03:43:00;;;;;;;15.93;13.93;;;;;;;6.45;100.00;97360.03;4994969;28;20525;-75
2022/10/04 03:45:27;;;;;;;14.97;13.67;;;;;;;6.34;100.00;97363.94;4994546;28;20231;-75
2022/10/04 03:47:57;;;;;;;17.40;14.17;;;;;;;6.51;100.00;97356.69;5003664;28;20680;-75
2022/10/04 03:50:33;;;;;;;18.80;15.63;;;;;;;6.42;100.00;97348.16;5014070;28;20266;-75
2022/10/04 03:53:14;;;;;;;17.27;15.67;;;;;;;6.39;100.00;97353.75;5013967;28;20187;-74
2022/10/04 03:55:43;;;;;;;14.63;13.20;;;;;;;6.26;100.00;97359.63;5014009;28;20175;-75
2022/10/04 03:58:12;;;;;;;15.60;14.10;;;;;;;6.32;100.00;97352.88;4994918;28;20192;-75
2022/10/04 04:00:43;;;;;;;16.03;13.73;;;;;;;6.40;100.00;97360.59;4994737;28;20271;-75
2022/10/04 04:03:16;;;;;;;15.43;13.80;;;;;;;6.43;100.00;97360.19;4994643;28;20562;-75
2022/10/04 04:05:51;;;;;;;16.27;13.70;;;;;;;6.42;100.00;97360.38;4994276;28;20179;-75
2022/10/04 04:08:35;;;;;;;16.10;14.60;;;;;;;6.38;100.00;97356.53;4961975;28;20203;-75
2022/10/04 04:11:03;;;;;;;17.20;14.07;;;;;;;6.37;100.00;97360.13;4994627;28;20191;-75
2022/10/04 04:13:39;;;;;;;16.53;14.93;;;;;;;6.37;100.00;97360.94;4994304;28;20239;-74
2022/10/04 04:16:05;;;;;;;17.10;15.33;;;;;;;6.41;100.00;97358.78;4995636;28;20187;-75
2022/10/04 04:18:33;;;;;;;17.10;15.40;;;;;;;6.24;100.00;97358.22;5006501;28;20203;-75
2022/10/04 04:21:01;;;;;;;17.00;14.73;;;;;;;6.37;100.00;97353.13;4994217;28;20184;-75
2022/10/04 04:23:33;;;;;;;18.17;14.47;;;;;;;6.25;100.00;97355.41;4994311;28;20325;-75
2022/10/04 04:26:41;;;;;;;15.90;14.23;;;;;;;6.22;100.00;97350.59;4995878;28;20551;-74
2022/10/04 04:29:09;;;;;;;16.40;14.90;;;;;;;6.17;100.00;97352.13;5000219;28;20198;-74
2022/10/04 04:31:42;;;;;;;16.80;15.13;;;;;;;6.20;100.00;97343.94;4995171;28;20199;-75
2022/10/04 04:34:24;;;;;;;15.97;14.47;;;;;;;6.31;100.00;97348.66;5002778;28;20196;-75
2022/10/04 04:36:51;;;;;;;17.37;15.67;;;;;;;6.24;100.00;97343.38;4984543;28;20186;-75
2022/10/04 04:39:38;;;;;;;18.67;16.77;;;;;;;6.13;100.00;97335.28;5013333;28;20179;-75
2022/10/04 04:42:09;;;;;;;19.23;17.07;;;;;;;6.15;100.00;97328.91;5013466;28;20199;-75
2022/10/04 04:44:37;;;;;;;18.00;16.10;;;;;;;6.18;100.00;97338.94;5012966;28;20736;-75
2022/10/04 04:47:09;;;;;;;17.47;15.60;;;;;;;6.08;100.00;97335.00;5011868;28;20235;-75
2022/10/04 04:49:38;;;;;;;16.80;14.70;;;;;;;6.13;100.00;97328.25;5013256;28;20198;-75
2022/10/04 04:52:04;;;;;;;18.03;16.33;;;;;;;6.21;100.00;97333.34;4996766;28;20186;-74
2022/10/04 04:54:30;;;;;;;18.73;16.03;;;;;;;6.11;100.00;97334.66;4997563;28;20183;-75
2022/10/04 04:56:56;;;;;;;19.43;17.43;;;;;;;6.11;100.00;97348.47;5006066;28;20701;-74
2022/10/04 04:59:24;;;;;;;18.73;16.97;;;;;;;6.10;100.00;97351.25;4993681;28;20184;-74
2022/10/04 05:01:49;;;;;;;20.60;15.73;;;;;;;6.09;100.00;97353.03;5000089;28;20207;-74
2022/10/04 05:04:22;;;;;;;16.97;15.23;;;;;;;6.02;100.00;97359.19;5003998;28;20718;-74
2022/10/04 05:07:00;;;;;;;17.20;15.60;;;;;;;5.87;100.00;97356.59;4994750;28;20334;-73
2022/10/04 05:09:31;;;;;;;18.67;16.77;;;;;;;5.74;100.00;97365.00;4993718;28;20235;-74
2022/10/04 05:12:06;;;;;;;19.20;17.43;;;;;;;5.74;100.00;97367.63;4978491;28;20652;-73
2022/10/04 05:14:33;;;;;;;19.13;16.90;;;;;;;5.75;100.00;97366.63;4993549;28;20234;-74
2022/10/04 05:16:59;;;;;;;19.77;17.77;;;;;;;5.74;100.00;97367.63;5005264;28;20219;-74
2022/10/04 05:19:31;;;;;;;18.67;16.83;;;;;;;5.81;100.00;97373.72;5012762;28;20687;-74
2022/10/04 05:22:06;;;;;;;18.20;16.30;;;;;;;5.90;100.00;97366.66;4976850;28;20598;-74
2022/10/04 05:24:37;;;;;;;16.90;15.30;;;;;;;6.11;100.00;97371.09;4993883;28;20168;-73
2022/10/04 05:27:06;;;;;;;17.03;15.27;;;;;;;6.05;100.00;97371.81;4997873;28;20282;-75
2022/10/04 05:29:38;;;;;;;17.67;15.97;;;;;;;6.00;100.00;97374.16;4997435;28;20184;-76
2022/10/04 05:32:12;;;;;;;18.87;16.40;;;;;;;6.13;100.00;97377.69;4997425;28;20194;-75
2022/10/04 05:34:40;;;;;;;16.93;15.30;;;;;;;6.29;100.00;97374.09;5003529;28;20207;-76
2022/10/04 05:37:29;;;;;;;19.33;15.63;;;;;;;6.15;100.00;97380.13;5014893;28;20187;-76
2022/10/04 05:40:14;;;;;;;17.00;15.33;;;;;;;6.31;100.00;97377.28;5008662;28;20183;-76
2022/10/04 05:42:44;;;;;;;16.20;14.50;;;;;;;6.26;100.00;97382.25;4997279;28;20554;-76
2022/10/04 05:45:23;;;;;;;18.07;16.37;;;;;;;6.19;100.00;97383.97;4986380;28;20682;-76
2022/10/04 05:47:52;;;;;;;18.37;16.47;;;;;;;6.33;100.00;97390.13;4993653;28;20333;-76
2022/10/04 05:50:29;;;;;;;17.27;15.53;;;;;;;6.34;100.00;97383.94;5000544;28;20180;-75
2022/10/04 05:53:27;;;;;;;19.23;17.33;;;;;;;6.32;100.00;97372.91;4998318;28;20180;-75
2022/10/04 05:56:19;;;;;;;24.83;18.13;;;;;;;6.36;100.00;97374.13;4996610;28;20190;-75
2022/10/04 05:58:57;;;;;;;24.10;19.00;;;;;;;6.34;100.00;97370.94;4996775;28;20501;-74
2022/10/04 06:01:45;;;;;;;21.00;17.53;;;;;;;6.51;100.00;97367.91;4997043;28;20641;-75
2022/10/04 06:04:30;;;;;;;19.57;16.67;;;;;;;6.44;100.00;97363.63;5000630;28;20187;-74
2022/10/04 06:07:03;;;;;;;17.50;15.80;;;;;;;6.51;100.00;97372.28;4991693;28;20207;-75
2022/10/04 06:09:56;;;;;;;16.37;14.37;;;;;;;6.50;100.00;97375.88;5016234;28;20176;-74
2022/10/04 06:12:29;;;;;;;15.53;14.03;;;;;;;6.52;100.00;97372.09;4988714;28;20262;-73
2022/10/04 06:15:12;;;;;;;17.53;15.67;;;;;;;6.53;100.00;97367.69;5014195;28;20188;-74
2022/10/04 06:17:45;;;;;;;18.53;16.77;;;;;;;6.86;100.00;97366.19;5015980;28;20639;-74
2022/10/04 06:20:39;;;;;;;18.93;17.03;;;;;;;7.13;100.00;97367.19;5015564;28;20180;-73
2022/10/04 06:23:13;;;;;;;17.93;16.13;;;;;;;7.19;100.00;97366.41;5015629;28;20254;-74
2022/10/04 06:26:08;;;;;;;18.93;17.10;;;;;;;7.29;100.00;97366.09;5008443;28;20176;-74
2022/10/04 06:28:51;;;;;;;22.90;21.10;;;;;;;7.50;100.00;97366.81;5007531;28;20275;-74
2022/10/04 06:31:36;;;;;;;16.13;14.93;;;;;;;7.48;100.00;97363.59;4996271;28;20176;-73
2022/10/04 06:34:31;;;;;;;16.37;14.27;;;;;;;7.55;100.00;97378.47;4995695;28;20195;-74
2022/10/04 06:37:27;;;;;;;12.97;11.67;;;;;;;7.59;100.00;97377.06;5013360;28;20190;-74
2022/10/04 06:40:00;;;;;;;14.50;13.30;;;;;;;7.53;100.00;97381.25;5015381;28;20693;-74
2022/10/04 06:42:57;;;;;;;21.47;19.77;;;;;;;7.58;100.00;97380.72;4985225;28;20192;-74
2022/10/04 06:45:56;;;;;;;78.77;73.13;;;;;;;7.53;100.00;97389.09;4996972;28;20223;-74
2022/10/04 06:48:27;;;;;;;20.93;19.17;;;;;;;7.57;100.00;97379.91;4936043;28;20228;-73
2022/10/04 06:51:17;;;;;;;16.33;10.73;;;;;;;7.81;100.00;97383.81;4995010;28;20210;-74
2022/10/04 06:54:04;;;;;;;11.43;10.27;;;;;;;7.96;100.00;97376.66;4995871;28;20184;-74
2022/10/04 06:57:00;;;;;;;12.27;10.87;;;;;;;8.12;100.00;97376.31;4995768;28;20183;-74
2022/10/04 06:59:45;;;;;;;13.43;12.00;;;;;;;8.33;100.00;97370.97;4995946;28;20711;-74
2022/10/04 07:02:19;;;;;;;10.67;9.67;;;;;;;8.42;100.00;97373.38;4995044;28;20169;-74
2022/10/04 07:04:57;;;;;;;11.73;10.50;;;;;;;8.48;100.00;97378.63;4996403;28;20188;-74
2022/10/04 07:07:40;;;;;;;10.57;9.53;;;;;;;8.54;100.00;97380.44;4995750;28;20223;-74
2022/10/04 07:10:29;;;;;;;10.67;9.57;;;;;;;8.61;100.00;97383.88;4996100;28;20180;-74
2022/10/04 07:13:39;;;;;;;9.40;8.47;;;;;;;8.65;100.00;97379.06;4995424;28;20203;-74
2022/10/04 07:16:11;;;;;;;8.50;7.70;;;;;;;8.65;100.00;97379.88;4996590;28;20266;-73
2022/10/04 07:18:42;;;;;;;8.77;7.90;;;;;;;8.93;100.00;97379.69;4987911;28;20200;-74
2022/10/04 07:21:14;;;;;;;9.73;8.93;;;;;;;8.99;100.00;97378.88;4985618;28;20238;-75
2022/10/04 07:23:55;;;;;;;10.00;9.13;;;;;;;8.85;100.00;97379.88;4975584;28;20185;-74
2022/10/04 07:26:37;;;;;;;10.80;9.70;;;;;;;8.92;100.00;97385.09;4994696;28;20670;-73
2022/10/04 07:29:20;;;;;;;11.07;9.97;;;;;;;9.12;100.00;97386.72;4995452;28;20676;-74
2022/10/04 07:32:04;;;;;;;10.80;9.73;;;;;;;9.06;100.00;97386.72;5009947;28;20513;-74
2022/10/04 07:34:39;;;;;;;10.17;9.17;;;;;;;9.14;100.00;97389.13;4994265;28;20315;-74
2022/10/04 07:37:12;;;;;;;12.03;9.73;;;;;;;9.18;100.00;97393.75;4994958;28;20168;-73
2022/10/04 07:40:17;;;;;;;9.77;8.80;;;;;;;8.99;100.00;97404.22;4994402;28;20195;-74
2022/10/04 07:42:43;;;;;;;10.23;8.23;;;;;;;9.41;100.00;97406.41;5004298;28;20640;-74
2022/10/04 07:45:20;;;;;;;12.80;8.33;;;;;;;9.49;100.00;97418.47;5006320;28;20258;-74
2022/10/04 07:47:46;;;;;;;9.47;8.73;;;;;;;9.23;100.00;97418.50;5010225;28;20210;-74
2022/10/04 07:50:51;;;;;;;10.90;9.80;;;;;;;9.40;100.00;97422.31;5011128;28;20179;-74
2022/10/04 07:53:47;;;;;;;9.87;8.87;;;;;;;9.72;100.00;97431.09;4991523;28;20191;-74
2022/10/04 07:56:30;;;;;;;8.87;8.17;;;;;;;9.65;100.00;97440.78;4974889;28;20213;-74
2022/10/04 07:59:17;;;;;;;11.27;9.37;;;;;;;9.69;100.00;97431.53;4994406;28;20184;-74
2022/10/04 08:01:49;;;;;;;13.47;12.37;;;;;;;9.86;100.00;97435.31;4997479;28;20246;-73
2022/10/04 08:04:27;;;;;;;10.53;9.73;;;;;;;9.72;100.00;97428.50;4994111;28;20588;-73
2022/10/04 08:07:12;;;;;;;8.67;7.97;;;;;;;10.19;100.00;97427.38;5009194;28;20203;-74
2022/10/04 08:10:02;;;;;;;10.33;9.10;;;;;;;9.78;100.00;97422.44;5013301;28;20182;-73
2022/10/04 08:12:34;;;;;;;13.13;12.10;;;;;;;10.26;100.00;97418.44;5010278;28;20245;-73
2022/10/04 08:15:14;;;;;;;10.33;9.50;;;;;;;10.37;100.00;97415.19;5006136;28;20311;-74
2022/10/04 08:18:10;;;;;;;11.33;10.23;;;;;;;10.46;100.00;97410.50;5001739;28;20211;-75
2022/10/04 08:20:48;;;;;;;13.67;12.47;;;;;;;10.53;100.00;97416.53;4995473;28;20211;-74
2022/10/04 08:23:19;;;;;;;12.63;11.67;;;;;;;10.83;100.00;97422.78;5010968;28;20678;-74
2022/10/04 08:25:50;;;;;;;19.83;18.30;;;;;;;10.60;100.00;97421.72;5010631;28;20594;-75
2022/10/04 08:31:37;;;;;;;11.40;8.77;;;;;;;10.58;100.00;97400.16;5008856;28;20262;-74
2022/10/04 08:34:06;;;;;;;8.50;7.57;;;;;;;10.42;100.00;97390.97;4992700;28;20564;-75
2022/10/04 08:36:43;;;;;;;10.07;9.20;;;;;;;10.60;100.00;97395.50;4999462;28;20675;-75
2022/10/04 08:39:19;;;;;;;10.00;9.10;;;;;;;10.56;100.00;97403.00;5013141;28;20186;-74
2022/10/04 08:42:12;;;;;;;13.30;11.67;;;;;;;10.70;100.00;97403.72;5013286;28;20254;-74
2022/10/04 08:45:15;;;;;;;12.37;11.47;;;;;;;10.62;100.00;97396.91;4996657;28;20642;-75
2022/10/04 08:47:53;;;;;;;10.73;9.13;;;;;;;10.88;100.00;97397.72;5005753;28;20207;-75
2022/10/04 08:50:53;;;;;;;8.50;7.67;;;;;;;10.69;100.00;97399.50;4994809;28;20200;-75
2022/10/04 08:54:04;;;;;;;8.73;7.93;;;;;;;10.65;100.00;97406.16;4992742;28;20211;-74
2022/10/04 08:57:01;;;;;;;9.67;8.87;;;;;;;10.60;100.00;97416.47;4921388;28;20751;-74
2022/10/04 08:59:48;;;;;;;10.40;9.37;;;;;;;10.56;100.00;97420.53;4997757;28;20303;-75
2022/10/04 09:02:36;;;;;;;9.83;8.83;;;;;;;10.90;100.00;97427.16;4968645;28;20223;-75
2022/10/04 09:05:22;;;;;;;10.27;8.70;;;;;;;10.69;100.00;97425.69;5010995;28;20194;-74
2022/10/04 09:08:17;;;;;;;9.70;8.90;;;;;;;10.52;100.00;97435.06;4997610;28;20574;-75
2022/10/04 09:11:07;;;;;;;9.87;8.93;;;;;;;10.84;100.00;97434.06;5010604;28;20290;-74
2022/10/04 09:13:42;;;;;;;9.10;8.20;;;;;;;11.19;100.00;97426.56;4993374;28;20339;-75
2022/10/04 09:16:27;;;;;;;9.87;8.87;;;;;;;11.11;100.00;97427.63;4994641;28;20191;-74
2022/10/04 09:19:11;;;;;;;9.10;8.20;;;;;;;11.12;100.00;97437.09;4996229;28;20208;-75
2022/10/04 09:21:56;;;;;;;10.30;9.40;;;;;;;11.37;100.00;97421.34;4994613;28;20176;-74
2022/10/04 09:24:33;;;;;;;12.07;11.00;;;;;;;11.41;100.00;97424.34;4991682;28;20183;-75
2022/10/04 09:27:18;;;;;;;27.97;26.17;;;;;;;11.66;100.00;97422.47;5002908;28;20295;-72
2022/10/04 09:30:20;;;;;;;25.10;23.40;;;;;;;11.90;100.00;97419.03;5002628;28;20171;-72
2022/10/04 09:32:58;;;;;;;19.83;18.43;;;;;;;12.14;100.00;97411.28;4995694;28;20195;-74
2022/10/04 09:35:28;;;;;;;16.90;15.73;;;;;;;11.93;100.00;97410.69;5010891;28;20221;-75
2022/10/04 09:38:19;;;;;;;10.80;10.00;;;;;;;12.20;97.80;97400.69;4987696;28;20195;-72
2022/10/04 09:41:12;;;;;;;18.87;17.27;;;;;;;12.19;98.10;97395.66;4993041;28;20230;-72
2022/10/04 09:44:02;;;;;;;30.73;28.93;;;;;;;12.33;97.98;97394.44;4998071;28;20176;-73
2022/10/04 09:46:28;;;;;;;33.87;31.70;;;;;;;12.55;97.49;97398.19;4991583;28;20303;-73
2022/10/04 09:49:18;;;;;;;29.40;27.50;;;;;;;12.55;97.03;97400.03;4992484;28;20188;-73
2022/10/04 09:52:05;;;;;;;11.00;10.00;;;;;;;12.72;95.76;97396.53;4996182;28;20212;-73
2022/10/04 09:54:57;;;;;;;9.83;8.93;;;;;;;12.61;95.62;97391.25;5000303;28;20284;-73
2022/10/04 09:57:29;;;;;;;9.37;8.53;;;;;;;12.74;94.54;97383.97;4992855;28;20650;-73
2022/10/04 10:00:10;;;;;;;8.37;7.53;;;;;;;12.75;92.31;97398.72;4992831;28;20299;-73
2022/10/04 10:03:26;;;;;;;12.47;11.47;;;;;;;12.91;93.99;97400.72;4992511;28;20302;-73
2022/10/04 10:06:13;;;;;;;9.70;8.63;;;;;;;12.98;93.66;97397.97;4955357;28;20191;-73
2022/10/04 10:08:56;;;;;;;9.80;8.83;;;;;;;13.21;93.53;97387.50;5009949;28;20583;-73
2022/10/04 10:14:43;;;;;;;10.27;9.53;;;;;;;13.03;92.29;97400.72;5015109;28;20389;-73
2022/10/04 10:17:23;;;;;;;11.03;10.10;;;;;;;13.10;93.79;97400.59;5015069;28;20299;-74
2022/10/04 10:20:18;;;;;;;14.47;13.47;;;;;;;13.33;93.29;97390.13;5002567;28;20180;-74
2022/10/04 10:22:57;;;;;;;15.23;14.27;;;;;;;13.32;94.39;97393.78;5000671;28;20188;-72
2022/10/04 10:25:41;;;;;;;11.97;11.17;;;;;;;13.56;93.02;97397.22;4983082;28;20168;-73
2022/10/04 10:28:24;;;;;;;17.03;15.87;;;;;;;13.65;91.84;97399.28;5009243;28;20198;-72
2022/10/04 10:31:07;;;;;;;13.77;12.83;;;;;;;13.77;92.18;97398.47;5014633;28;20211;-73
2022/10/04 10:33:38;;;;;;;12.80;11.83;;;;;;;13.76;94.07;97402.16;5010532;28;20191;-74
2022/10/04 10:36:26;;;;;;;12.30;11.43;;;;;;;13.80;93.72;97400.66;5015182;28;20179;-73
2022/10/04 10:38:57;;;;;;;16.17;14.97;;;;;;;13.91;93.28;97397.19;5004443;28;20222;-72
2022/10/04 10:41:42;;;;;;;74.57;70.23;;;;;;;13.89;93.24;97396.59;5008202;28;20216;-72
2022/10/04 10:44:28;;;;;;;13.13;12.13;;;;;;;14.06;92.08;97398.28;4980993;28;20242;-73
2022/10/04 10:47:27;;;;;;;19.20;17.90;;;;;;;13.92;92.79;97391.69;5007204;28;20202;-73
2022/10/04 10:50:00;;;;;;;24.90;23.43;;;;;;;13.95;91.65;97393.06;5009025;28;20262;-73
2022/10/04 10:52:44;;;;;;;12.47;11.57;;;;;;;13.80;93.58;97387.47;5011974;28;20190;-74
2022/10/04 10:55:27;;;;;;;16.23;15.17;;;;;;;13.96;94.08;97395.47;4999988;28;20175;-73
2022/10/04 10:58:44;;;;;;;15.73;14.23;;;;;;;14.18;90.03;97390.34;5016019;28;20199;-73
2022/10/04 11:01:24;;;;;;;12.57;11.57;;;;;;;14.18;89.33;97393.00;4992892;28;20219;-74
2022/10/04 11:04:17;;;;;;;12.20;11.10;;;;;;;14.18;89.49;97387.72;5014545;28;20179;-73
2022/10/04 11:07:12;;;;;;;10.53;9.73;;;;;;;14.32;90.02;97383.00;5003519;28;20204;-72
2022/10/04 11:10:13;;;;;;;14.40;13.23;;;;;;;14.27;87.20;97386.31;5005006;28;20183;-73
2022/10/04 11:13:06;;;;;;;10.07;9.37;;;;;;;14.61;88.22;97376.66;5014858;28;20215;-75
2022/10/04 11:15:52;;;;;;;13.07;12.13;;;;;;;14.65;87.09;97380.47;5001694;28;20275;-75
2022/10/04 11:18:49;;;;;;;12.50;11.47;;;;;;;14.76;88.14;97386.72;5000689;28;20195;-74
2022/10/04 11:21:49;;;;;;;14.70;13.70;;;;;;;14.72;89.61;97378.44;5010052;28;20214;-74
2022/10/04 11:24:33;;;;;;;13.10;11.97;;;;;;;15.04;88.61;97383.22;5014652;28;20543;-73
2022/10/04 11:27:27;;;;;;;19.63;18.23;;;;;;;15.17;88.21;97381.03;4997774;28;20199;-73
2022/10/04 11:30:02;;;;;;;37.63;35.03;;;;;;;15.20;87.85;97385.03;4990798;28;20175;-73
2022/10/04 11:32:46;;;;;;;12.97;11.97;;;;;;;15.11;84.65;97368.78;5005337;28;20670;-72
2022/10/04 11:35:29;;;;;;;11.03;10.20;;;;;;;15.39;83.49;97365.25;5001424;28;20175;-72
2022/10/04 11:38:02;;;;;;;10.93;10.13;;;;;;;15.51;81.84;97365.16;5004721;28;20671;-73
2022/10/04 11:40:57;;;;;;;10.20;9.40;;;;;;;15.46;82.68;97354.50;4988245;28;20600;-73
2022/10/04 11:43:59;;;;;;;11.67;10.93;;;;;;;15.68;80.45;97355.38;4995066;28;20619;-73
2022/10/04 11:47:02;;;;;;;9.90;9.23;;;;;;;15.70;81.62;97355.94;4999724;28;20241;-73
2022/10/04 11:49:49;;;;;;;8.87;8.20;;;;;;;15.58;82.99;97356.03;5004677;28;20696;-73
2022/10/04 11:52:24;;;;;;;8.97;8.27;;;;;;;15.82;82.25;97348.69;5010609;28;20186;-73
2022/10/04 11:55:11;;;;;;;13.97;13.10;;;;;;;15.75;81.09;97342.78;4999693;28;20171;-72
2022/10/04 11:58:01;;;;;;;12.10;11.33;;;;;;;15.91;81.63;97335.84;4987062;28;20176;-71
2022/10/04 12:01:00;;;;;;;14.37;13.47;;;;;;;16.09;80.87;97336.31;4998444;28;20192;-73
2022/10/04 12:04:03;;;;;;;19.83;18.53;;;;;;;16.15;80.47;97323.94;4993049;28;20673;-74
2022/10/04 12:06:47;;;;;;;22.60;21.17;;;;;;;16.21;81.21;97325.59;4985725;28;20649;-72
2022/10/04 12:09:32;;;;;;;20.87;19.57;;;;;;;16.24;81.44;97317.16;5003277;28;20288;-72
2022/10/04 12:12:37;;;;;;;22.20;20.80;;;;;;;16.26;81.79;97320.38;5007244;28;20605;-73
2022/10/04 12:15:17;;;;;;;20.03;18.73;;;;;;;16.35;81.07;97326.78;5001645;28;20187;-75
2022/10/04 12:18:07;;;;;;;22.05;20.70;;;;;;;16.57;79.79;97316.16;5001658;28;20224;-73
2022/10/04 12:20:53;;;;;;;17.77;16.67;;;;;;;16.81;78.83;97317.44;5011538;28;20203;-73
2022/10/04 12:24:06;;;;;;;15.60;14.40;;;;;;;17.01;77.64;97317.59;4995408;28;20197;-74
2022/10/04 12:26:37;;;;;;;12.85;12.07;;;;;;;17.05;77.53;97309.97;4938149;28;20670;-74